sensor_id;sensor_type;location;lat;lon;timestamp;P1;durP1;ratioP1;P2;durP2;ratioP2
68250;SDS011;55066;51.560;4.642;2022-10-17T00:00:18;12.20;;;6.83;;
68250;SDS011;55066;51.560;4.642;2022-10-17T00:02:44;12.63;;;6.60;;
68250;SDS011;55066;51.560;4.642;2022-10-17T00:05:09;13.00;;;6.60;;
68250;SDS011;55066;51.560;4.642;2022-10-17T00:07:36;12.25;;;6.30;;
68250;SDS011;55066;51.560;4.642;2022-10-17T00:10:02;13.67;;;6.43;;
68250;SDS011;55066;51.560;4.642;2022-10-17T00:12:28;11.48;;;6.40;;
68250;SDS011;55066;51.560;4.642;2022-10-17T00:14:53;12.43;;;6.33;;
68250;SDS011;55066;51.560;4.642;2022-10-17T00:17:19;11.60;;;5.83;;
68250;SDS011;55066;51.560;4.642;2022-10-17T00:19:44;10.73;;;5.57;;
68250;SDS011;55066;51.560;4.642;2022-10-17T00:22:09;10.53;;;5.60;;
68250;SDS011;55066;51.560;4.642;2022-10-17T00:24:35;12.40;;;6.47;;
68250;SDS011;55066;51.560;4.642;2022-10-17T00:27:00;10.50;;;5.97;;
68250;SDS011;55066;51.560;4.642;2022-10-17T00:29:26;12.07;;;6.37;;
68250;SDS011;55066;51.560;4.642;2022-10-17T00:31:55;11.50;;;6.07;;
68250;SDS011;55066;51.560;4.642;2022-10-17T00:34:21;12.23;;;6.07;;
68250;SDS011;55066;51.560;4.642;2022-10-17T00:36:46;11.48;;;6.28;;
68250;SDS011;55066;51.560;4.642;2022-10-17T00:39:12;10.70;;;5.60;;
68250;SDS011;55066;51.560;4.642;2022-10-17T00:41:37;11.53;;;5.93;;
68250;SDS011;55066;51.560;4.642;2022-10-17T00:46:54;11.97;;;6.43;;
68250;SDS011;55066;51.560;4.642;2022-10-17T00:49:25;10.90;;;6.22;;
68250;SDS011;55066;51.560;4.642;2022-10-17T00:51:56;13.07;;;6.05;;
68250;SDS011;55066;51.560;4.642;2022-10-17T00:54:26;10.40;;;5.63;;
68250;SDS011;55066;51.560;4.642;2022-10-17T00:56:55;12.25;;;6.10;;
68250;SDS011;55066;51.560;4.642;2022-10-17T00:59:25;13.37;;;5.43;;
68250;SDS011;55066;51.560;4.642;2022-10-17T01:04:29;9.70;;;5.45;;
68250;SDS011;55066;51.560;4.642;2022-10-17T01:06:54;11.87;;;6.07;;
68250;SDS011;55066;51.560;4.642;2022-10-17T01:09:20;9.88;;;5.45;;
68250;SDS011;55066;51.560;4.642;2022-10-17T01:26:15;14.00;;;7.40;;
68250;SDS011;55066;51.560;4.642;2022-10-17T01:31:47;13.07;;;6.20;;
68250;SDS011;55066;51.560;4.642;2022-10-17T01:37:07;15.30;;;6.95;;
68250;SDS011;55066;51.560;4.642;2022-10-17T01:42:18;14.88;;;7.60;;
68250;SDS011;55066;51.560;4.642;2022-10-17T01:45:00;14.68;;;6.22;;
68250;SDS011;55066;51.560;4.642;2022-10-17T01:47:29;14.30;;;6.50;;
68250;SDS011;55066;51.560;4.642;2022-10-17T01:50:06;14.50;;;7.13;;
68250;SDS011;55066;51.560;4.642;2022-10-17T01:53:40;13.30;;;7.10;;
68250;SDS011;55066;51.560;4.642;2022-10-17T01:55:35;15.27;;;7.50;;
68250;SDS011;55066;51.560;4.642;2022-10-17T01:58:05;12.80;;;7.20;;
68250;SDS011;55066;51.560;4.642;2022-10-17T02:00:34;14.32;;;7.22;;
68250;SDS011;55066;51.560;4.642;2022-10-17T02:03:03;16.58;;;7.93;;
68250;SDS011;55066;51.560;4.642;2022-10-17T02:05:38;14.88;;;7.22;;
68250;SDS011;55066;51.560;4.642;2022-10-17T02:08:05;14.50;;;6.90;;
68250;SDS011;55066;51.560;4.642;2022-10-17T02:10:36;15.65;;;7.18;;
68250;SDS011;55066;51.560;4.642;2022-10-17T02:13:15;13.48;;;7.05;;
68250;SDS011;55066;51.560;4.642;2022-10-17T02:15:48;13.85;;;6.78;;
68250;SDS011;55066;51.560;4.642;2022-10-17T02:21:19;18.57;;;7.80;;
68250;SDS011;55066;51.560;4.642;2022-10-17T02:26:32;15.40;;;7.53;;
68250;SDS011;55066;51.560;4.642;2022-10-17T02:31:55;14.15;;;7.15;;
68250;SDS011;55066;51.560;4.642;2022-10-17T02:34:31;17.37;;;6.97;;
68250;SDS011;55066;51.560;4.642;2022-10-17T02:37:02;14.88;;;7.57;;
68250;SDS011;55066;51.560;4.642;2022-10-17T02:39:30;17.05;;;7.43;;
68250;SDS011;55066;51.560;4.642;2022-10-17T02:41:57;17.10;;;7.55;;
68250;SDS011;55066;51.560;4.642;2022-10-17T02:44:27;14.15;;;7.47;;
68250;SDS011;55066;51.560;4.642;2022-10-17T02:46:58;16.50;;;7.60;;
68250;SDS011;55066;51.560;4.642;2022-10-17T02:49:29;12.25;;;6.70;;
68250;SDS011;55066;51.560;4.642;2022-10-17T02:52:07;16.05;;;7.75;;
68250;SDS011;55066;51.560;4.642;2022-10-17T02:54:42;15.98;;;7.93;;
68250;SDS011;55066;51.560;4.642;2022-10-17T02:57:27;16.00;;;8.07;;
68250;SDS011;55066;51.560;4.642;2022-10-17T02:59:54;12.82;;;7.30;;
68250;SDS011;55066;51.560;4.642;2022-10-17T03:02:23;16.35;;;8.18;;
68250;SDS011;55066;51.560;4.642;2022-10-17T03:04:49;16.55;;;8.10;;
68250;SDS011;55066;51.560;4.642;2022-10-17T03:07:14;19.23;;;8.70;;
68250;SDS011;55066;51.560;4.642;2022-10-17T03:09:40;17.85;;;8.77;;
68250;SDS011;55066;51.560;4.642;2022-10-17T03:12:05;17.87;;;9.03;;
68250;SDS011;55066;51.560;4.642;2022-10-17T03:14:31;18.80;;;9.17;;
68250;SDS011;55066;51.560;4.642;2022-10-17T03:16:56;18.30;;;8.50;;
68250;SDS011;55066;51.560;4.642;2022-10-17T03:19:23;23.17;;;8.65;;
68250;SDS011;55066;51.560;4.642;2022-10-17T03:21:50;16.95;;;8.07;;
68250;SDS011;55066;51.560;4.642;2022-10-17T03:24:16;16.70;;;8.70;;
68250;SDS011;55066;51.560;4.642;2022-10-17T03:26:41;19.63;;;8.63;;
68250;SDS011;55066;51.560;4.642;2022-10-17T03:29:06;25.57;;;8.67;;
68250;SDS011;55066;51.560;4.642;2022-10-17T03:31:33;16.77;;;7.87;;
68250;SDS011;55066;51.560;4.642;2022-10-17T03:34:00;16.98;;;7.90;;
68250;SDS011;55066;51.560;4.642;2022-10-17T03:36:27;18.92;;;8.48;;
68250;SDS011;55066;51.560;4.642;2022-10-17T03:38:53;18.87;;;8.37;;
68250;SDS011;55066;51.560;4.642;2022-10-17T03:41:20;18.77;;;8.95;;
68250;SDS011;55066;51.560;4.642;2022-10-17T03:43:46;22.20;;;9.05;;
68250;SDS011;55066;51.560;4.642;2022-10-17T03:46:12;16.48;;;8.57;;
68250;SDS011;55066;51.560;4.642;2022-10-17T03:48:38;22.50;;;8.90;;
68250;SDS011;55066;51.560;4.642;2022-10-17T03:51:05;19.25;;;8.88;;
68250;SDS011;55066;51.560;4.642;2022-10-17T03:53:36;17.95;;;8.50;;
68250;SDS011;55066;51.560;4.642;2022-10-17T03:56:13;17.63;;;8.40;;
68250;SDS011;55066;51.560;4.642;2022-10-17T03:58:41;18.13;;;8.25;;
68250;SDS011;55066;51.560;4.642;2022-10-17T04:01:09;16.25;;;8.65;;
68250;SDS011;55066;51.560;4.642;2022-10-17T04:03:36;16.48;;;7.53;;
68250;SDS011;55066;51.560;4.642;2022-10-17T04:06:02;16.33;;;7.97;;
68250;SDS011;55066;51.560;4.642;2022-10-17T04:08:31;17.70;;;8.55;;
68250;SDS011;55066;51.560;4.642;2022-10-17T04:11:12;18.77;;;8.10;;
68250;SDS011;55066;51.560;4.642;2022-10-17T04:13:40;15.65;;;7.68;;
68250;SDS011;55066;51.560;4.642;2022-10-17T04:16:07;17.67;;;7.77;;
68250;SDS011;55066;51.560;4.642;2022-10-17T04:18:40;16.67;;;7.88;;
68250;SDS011;55066;51.560;4.642;2022-10-17T04:21:06;15.23;;;7.57;;
68250;SDS011;55066;51.560;4.642;2022-10-17T04:23:32;18.10;;;8.63;;
68250;SDS011;55066;51.560;4.642;2022-10-17T04:26:07;19.70;;;8.40;;
68250;SDS011;55066;51.560;4.642;2022-10-17T04:28:32;18.57;;;7.90;;
68250;SDS011;55066;51.560;4.642;2022-10-17T04:30:59;21.00;;;7.93;;
68250;SDS011;55066;51.560;4.642;2022-10-17T04:33:34;15.23;;;7.95;;
68250;SDS011;55066;51.560;4.642;2022-10-17T04:36:01;14.60;;;7.77;;
68250;SDS011;55066;51.560;4.642;2022-10-17T04:38:29;17.10;;;7.70;;
68250;SDS011;55066;51.560;4.642;2022-10-17T04:40:59;17.87;;;7.50;;
68250;SDS011;55066;51.560;4.642;2022-10-17T04:43:29;16.33;;;7.80;;
68250;SDS011;55066;51.560;4.642;2022-10-17T04:45:59;15.57;;;6.97;;
68250;SDS011;55066;51.560;4.642;2022-10-17T04:48:26;16.58;;;7.68;;
68250;SDS011;55066;51.560;4.642;2022-10-17T04:50:53;15.93;;;7.70;;
68250;SDS011;55066;51.560;4.642;2022-10-17T04:53:39;20.20;;;7.20;;
68250;SDS011;55066;51.560;4.642;2022-10-17T04:56:06;14.68;;;7.57;;
68250;SDS011;55066;51.560;4.642;2022-10-17T04:58:33;15.30;;;7.00;;
68250;SDS011;55066;51.560;4.642;2022-10-17T05:01:03;14.47;;;6.90;;
68250;SDS011;55066;51.560;4.642;2022-10-17T05:03:29;16.48;;;7.03;;
68250;SDS011;55066;51.560;4.642;2022-10-17T05:05:55;12.20;;;6.77;;
68250;SDS011;55066;51.560;4.642;2022-10-17T05:08:21;15.90;;;6.65;;
68250;SDS011;55066;51.560;4.642;2022-10-17T05:10:46;16.37;;;7.30;;
68250;SDS011;55066;51.560;4.642;2022-10-17T05:13:12;13.57;;;6.63;;
68250;SDS011;55066;51.560;4.642;2022-10-17T05:15:39;15.25;;;6.68;;
68250;SDS011;55066;51.560;4.642;2022-10-17T05:18:04;17.27;;;7.07;;
68250;SDS011;55066;51.560;4.642;2022-10-17T05:20:30;15.80;;;7.00;;
68250;SDS011;55066;51.560;4.642;2022-10-17T05:22:59;11.95;;;6.53;;
68250;SDS011;55066;51.560;4.642;2022-10-17T05:25:30;12.68;;;6.50;;
68250;SDS011;55066;51.560;4.642;2022-10-17T05:27:55;18.07;;;6.70;;
68250;SDS011;55066;51.560;4.642;2022-10-17T05:30:21;12.73;;;6.30;;
68250;SDS011;55066;51.560;4.642;2022-10-17T05:32:54;16.52;;;7.05;;
68250;SDS011;55066;51.560;4.642;2022-10-17T05:35:20;11.65;;;6.45;;
68250;SDS011;55066;51.560;4.642;2022-10-17T05:37:46;12.38;;;6.57;;
68250;SDS011;55066;51.560;4.642;2022-10-17T05:40:14;13.68;;;7.22;;
68250;SDS011;55066;51.560;4.642;2022-10-17T05:42:44;15.97;;;7.33;;
68250;SDS011;55066;51.560;4.642;2022-10-17T05:45:10;18.55;;;7.55;;
68250;SDS011;55066;51.560;4.642;2022-10-17T05:47:35;15.97;;;7.03;;
68250;SDS011;55066;51.560;4.642;2022-10-17T05:50:01;13.88;;;7.25;;
68250;SDS011;55066;51.560;4.642;2022-10-17T05:52:37;17.80;;;8.00;;
68250;SDS011;55066;51.560;4.642;2022-10-17T05:55:11;15.88;;;7.95;;
68250;SDS011;55066;51.560;4.642;2022-10-17T05:57:38;16.27;;;7.63;;
68250;SDS011;55066;51.560;4.642;2022-10-17T06:00:07;18.83;;;8.50;;
68250;SDS011;55066;51.560;4.642;2022-10-17T06:02:39;18.65;;;8.15;;
68250;SDS011;55066;51.560;4.642;2022-10-17T06:05:05;16.70;;;8.35;;
68250;SDS011;55066;51.560;4.642;2022-10-17T06:07:30;19.60;;;8.63;;
68250;SDS011;55066;51.560;4.642;2022-10-17T06:09:56;23.47;;;8.87;;
68250;SDS011;55066;51.560;4.642;2022-10-17T06:12:23;19.30;;;8.57;;
68250;SDS011;55066;51.560;4.642;2022-10-17T06:14:49;21.02;;;8.30;;
68250;SDS011;55066;51.560;4.642;2022-10-17T06:17:14;22.53;;;9.17;;
68250;SDS011;55066;51.560;4.642;2022-10-17T06:19:41;17.58;;;8.93;;
68250;SDS011;55066;51.560;4.642;2022-10-17T06:22:08;18.98;;;8.82;;
68250;SDS011;55066;51.560;4.642;2022-10-17T06:24:35;18.10;;;8.43;;
68250;SDS011;55066;51.560;4.642;2022-10-17T06:27:02;18.05;;;9.25;;
68250;SDS011;55066;51.560;4.642;2022-10-17T06:29:28;15.87;;;8.57;;
68250;SDS011;55066;51.560;4.642;2022-10-17T06:31:53;19.60;;;8.77;;
68250;SDS011;55066;51.560;4.642;2022-10-17T06:34:19;16.67;;;7.55;;
68250;SDS011;55066;51.560;4.642;2022-10-17T06:36:45;19.30;;;8.13;;
68250;SDS011;55066;51.560;4.642;2022-10-17T06:39:11;16.77;;;8.23;;
68250;SDS011;55066;51.560;4.642;2022-10-17T06:41:41;18.85;;;7.85;;
68250;SDS011;55066;51.560;4.642;2022-10-17T06:44:08;18.23;;;8.10;;
68250;SDS011;55066;51.560;4.642;2022-10-17T06:46:49;19.43;;;8.00;;
68250;SDS011;55066;51.560;4.642;2022-10-17T06:49:16;16.25;;;7.70;;
68250;SDS011;55066;51.560;4.642;2022-10-17T06:51:46;15.20;;;7.75;;
68250;SDS011;55066;51.560;4.642;2022-10-17T06:54:14;15.02;;;7.45;;
68250;SDS011;55066;51.560;4.642;2022-10-17T07:02:33;18.23;;;7.80;;
68250;SDS011;55066;51.560;4.642;2022-10-17T07:04:59;16.80;;;7.55;;
68250;SDS011;55066;51.560;4.642;2022-10-17T07:07:26;15.98;;;7.50;;
68250;SDS011;55066;51.560;4.642;2022-10-17T07:09:55;15.50;;;6.82;;
68250;SDS011;55066;51.560;4.642;2022-10-17T07:12:20;16.33;;;7.03;;
68250;SDS011;55066;51.560;4.642;2022-10-17T07:14:47;17.00;;;7.75;;
68250;SDS011;55066;51.560;4.642;2022-10-17T07:17:14;17.63;;;7.70;;
68250;SDS011;55066;51.560;4.642;2022-10-17T07:19:41;17.13;;;8.20;;
68250;SDS011;55066;51.560;4.642;2022-10-17T07:22:08;20.30;;;8.43;;
68250;SDS011;55066;51.560;4.642;2022-10-17T07:24:35;21.85;;;8.82;;
68250;SDS011;55066;51.560;4.642;2022-10-17T07:27:14;23.90;;;8.85;;
68250;SDS011;55066;51.560;4.642;2022-10-17T07:29:39;20.83;;;9.27;;
68250;SDS011;55066;51.560;4.642;2022-10-17T07:32:29;19.67;;;8.90;;
68250;SDS011;55066;51.560;4.642;2022-10-17T07:34:54;22.03;;;8.43;;
68250;SDS011;55066;51.560;4.642;2022-10-17T07:37:20;21.30;;;9.00;;
68250;SDS011;55066;51.560;4.642;2022-10-17T07:39:51;24.73;;;9.90;;
68250;SDS011;55066;51.560;4.642;2022-10-17T07:42:17;21.50;;;9.70;;
68250;SDS011;55066;51.560;4.642;2022-10-17T07:44:43;20.75;;;9.48;;
68250;SDS011;55066;51.560;4.642;2022-10-17T07:47:11;19.92;;;8.98;;
68250;SDS011;55066;51.560;4.642;2022-10-17T07:49:36;19.27;;;9.73;;
68250;SDS011;55066;51.560;4.642;2022-10-17T07:52:08;18.55;;;8.95;;
68250;SDS011;55066;51.560;4.642;2022-10-17T07:54:36;19.58;;;9.38;;
68250;SDS011;55066;51.560;4.642;2022-10-17T07:57:02;19.60;;;9.03;;
68250;SDS011;55066;51.560;4.642;2022-10-17T07:59:27;19.40;;;8.77;;
68250;SDS011;55066;51.560;4.642;2022-10-17T08:01:56;23.87;;;9.20;;
68250;SDS011;55066;51.560;4.642;2022-10-17T08:04:21;19.47;;;9.23;;
68250;SDS011;55066;51.560;4.642;2022-10-17T08:06:48;23.90;;;9.90;;
68250;SDS011;55066;51.560;4.642;2022-10-17T08:09:13;22.17;;;9.88;;
68250;SDS011;55066;51.560;4.642;2022-10-17T08:11:39;22.40;;;9.93;;
68250;SDS011;55066;51.560;4.642;2022-10-17T08:14:04;25.47;;;10.50;;
68250;SDS011;55066;51.560;4.642;2022-10-17T08:16:29;23.37;;;10.03;;
68250;SDS011;55066;51.560;4.642;2022-10-17T08:18:55;25.50;;;10.07;;
68250;SDS011;55066;51.560;4.642;2022-10-17T08:21:20;23.37;;;10.57;;
68250;SDS011;55066;51.560;4.642;2022-10-17T08:23:46;27.87;;;10.73;;
68250;SDS011;55066;51.560;4.642;2022-10-17T08:26:11;24.37;;;10.57;;
68250;SDS011;55066;51.560;4.642;2022-10-17T08:28:40;24.10;;;10.70;;
68250;SDS011;55066;51.560;4.642;2022-10-17T08:31:08;22.90;;;10.23;;
68250;SDS011;55066;51.560;4.642;2022-10-17T08:33:35;21.87;;;10.53;;
68250;SDS011;55066;51.560;4.642;2022-10-17T08:36:02;29.05;;;12.68;;
68250;SDS011;55066;51.560;4.642;2022-10-17T08:38:29;27.25;;;11.48;;
68250;SDS011;55066;51.560;4.642;2022-10-17T08:40:56;27.63;;;11.63;;
68250;SDS011;55066;51.560;4.642;2022-10-17T08:46:01;25.93;;;10.57;;
68250;SDS011;55066;51.560;4.642;2022-10-17T08:48:33;28.00;;;11.32;;
68250;SDS011;55066;51.560;4.642;2022-10-17T08:53:46;26.65;;;12.10;;
68250;SDS011;55066;51.560;4.642;2022-10-17T08:56:23;26.48;;;12.07;;
68250;SDS011;55066;51.560;4.642;2022-10-17T08:58:51;19.77;;;8.47;;
68250;SDS011;55066;51.560;4.642;2022-10-17T09:04:50;24.50;;;9.95;;
68250;SDS011;55066;51.560;4.642;2022-10-17T09:07:09;20.30;;;10.37;;
68250;SDS011;55066;51.560;4.642;2022-10-17T09:09:57;20.85;;;11.07;;
68250;SDS011;55066;51.560;4.642;2022-10-17T09:18:10;24.63;;;10.60;;
68250;SDS011;55066;51.560;4.642;2022-10-17T09:20:44;25.03;;;10.60;;
68250;SDS011;55066;51.560;4.642;2022-10-17T09:23:16;20.58;;;9.57;;
68250;SDS011;55066;51.560;4.642;2022-10-17T09:25:49;24.88;;;10.68;;
68250;SDS011;55066;51.560;4.642;2022-10-17T09:28:20;23.05;;;10.80;;
68250;SDS011;55066;51.560;4.642;2022-10-17T09:31:04;21.50;;;9.82;;
68250;SDS011;55066;51.560;4.642;2022-10-17T09:33:39;21.03;;;9.50;;
68250;SDS011;55066;51.560;4.642;2022-10-17T09:36:09;21.27;;;9.07;;
68250;SDS011;55066;51.560;4.642;2022-10-17T09:38:42;15.90;;;8.02;;
68250;SDS011;55066;51.560;4.642;2022-10-17T09:41:17;16.17;;;8.57;;
68250;SDS011;55066;51.560;4.642;2022-10-17T09:43:45;14.50;;;8.18;;
68250;SDS011;55066;51.560;4.642;2022-10-17T09:46:14;14.70;;;7.57;;
68250;SDS011;55066;51.560;4.642;2022-10-17T09:48:51;20.13;;;7.80;;
68250;SDS011;55066;51.560;4.642;2022-10-17T09:51:20;15.68;;;7.20;;
68250;SDS011;55066;51.560;4.642;2022-10-17T09:53:48;13.20;;;7.03;;
68250;SDS011;55066;51.560;4.642;2022-10-17T09:56:18;18.40;;;7.72;;
68250;SDS011;55066;51.560;4.642;2022-10-17T09:58:47;14.50;;;7.03;;
68250;SDS011;55066;51.560;4.642;2022-10-17T10:01:16;16.92;;;7.90;;
68250;SDS011;55066;51.560;4.642;2022-10-17T10:03:43;14.82;;;7.47;;
68250;SDS011;55066;51.560;4.642;2022-10-17T10:06:14;15.47;;;7.70;;
68250;SDS011;55066;51.560;4.642;2022-10-17T10:08:48;15.23;;;7.45;;
68250;SDS011;55066;51.560;4.642;2022-10-17T10:11:22;17.42;;;7.57;;
68250;SDS011;55066;51.560;4.642;2022-10-17T10:13:50;18.45;;;7.63;;
68250;SDS011;55066;51.560;4.642;2022-10-17T10:16:29;13.80;;;7.25;;
68250;SDS011;55066;51.560;4.642;2022-10-17T10:18:56;19.73;;;7.47;;
68250;SDS011;55066;51.560;4.642;2022-10-17T10:21:23;14.77;;;7.53;;
68250;SDS011;55066;51.560;4.642;2022-10-17T10:24:04;15.93;;;7.82;;
68250;SDS011;55066;51.560;4.642;2022-10-17T10:26:33;14.02;;;7.60;;
68250;SDS011;55066;51.560;4.642;2022-10-17T10:29:05;16.10;;;8.05;;
68250;SDS011;55066;51.560;4.642;2022-10-17T10:31:44;15.43;;;8.07;;
68250;SDS011;55066;51.560;4.642;2022-10-17T10:34:12;17.20;;;8.32;;
68250;SDS011;55066;51.560;4.642;2022-10-17T10:36:47;14.93;;;7.65;;
68250;SDS011;55066;51.560;4.642;2022-10-17T10:39:24;17.67;;;7.65;;
68250;SDS011;55066;51.560;4.642;2022-10-17T10:41:53;17.45;;;8.15;;
68250;SDS011;55066;51.560;4.642;2022-10-17T10:44:20;16.50;;;8.00;;
68250;SDS011;55066;51.560;4.642;2022-10-17T10:47:04;15.20;;;7.90;;
68250;SDS011;55066;51.560;4.642;2022-10-17T10:49:31;15.73;;;7.90;;
68250;SDS011;55066;51.560;4.642;2022-10-17T10:51:57;16.00;;;7.95;;
68250;SDS011;55066;51.560;4.642;2022-10-17T10:54:27;16.93;;;8.03;;
68250;SDS011;55066;51.560;4.642;2022-10-17T10:56:57;12.80;;;7.57;;
68250;SDS011;55066;51.560;4.642;2022-10-17T10:59:47;17.02;;;7.70;;
68250;SDS011;55066;51.560;4.642;2022-10-17T11:05:29;13.32;;;7.05;;
68250;SDS011;55066;51.560;4.642;2022-10-17T11:08:17;12.80;;;7.03;;
68250;SDS011;55066;51.560;4.642;2022-10-17T11:11:03;13.43;;;7.05;;
68250;SDS011;55066;51.560;4.642;2022-10-17T11:14:02;15.68;;;7.53;;
68250;SDS011;55066;51.560;4.642;2022-10-17T11:22:14;13.30;;;6.83;;
68250;SDS011;55066;51.560;4.642;2022-10-17T11:24:55;13.48;;;7.05;;
68250;SDS011;55066;51.560;4.642;2022-10-17T11:27:28;13.40;;;6.93;;
68250;SDS011;55066;51.560;4.642;2022-10-17T11:29:55;11.52;;;7.22;;
68250;SDS011;55066;51.560;4.642;2022-10-17T11:34:53;15.33;;;7.60;;
68250;SDS011;55066;51.560;4.642;2022-10-17T11:37:43;15.15;;;7.35;;
68250;SDS011;55066;51.560;4.642;2022-10-17T11:40:21;11.88;;;6.60;;
68250;SDS011;55066;51.560;4.642;2022-10-17T11:42:53;12.00;;;6.20;;
68250;SDS011;55066;51.560;4.642;2022-10-17T11:45:24;11.20;;;6.57;;
68250;SDS011;55066;51.560;4.642;2022-10-17T11:47:54;13.50;;;6.17;;
68250;SDS011;55066;51.560;4.642;2022-10-17T11:50:29;14.65;;;6.32;;
68250;SDS011;55066;51.560;4.642;2022-10-17T11:53:08;13.07;;;6.18;;
68250;SDS011;55066;51.560;4.642;2022-10-17T11:55:38;10.18;;;5.53;;
68250;SDS011;55066;51.560;4.642;2022-10-17T12:04:15;14.73;;;5.47;;
68250;SDS011;55066;51.560;4.642;2022-10-17T12:09:58;10.88;;;6.32;;
68250;SDS011;55066;51.560;4.642;2022-10-17T12:12:30;13.10;;;6.63;;
68250;SDS011;55066;51.560;4.642;2022-10-17T12:17:38;14.90;;;6.90;;
68250;SDS011;55066;51.560;4.642;2022-10-17T12:22:48;13.88;;;7.25;;
68250;SDS011;55066;51.560;4.642;2022-10-17T12:25:37;16.83;;;7.63;;
68250;SDS011;55066;51.560;4.642;2022-10-17T12:31:00;12.57;;;6.95;;
68250;SDS011;55066;51.560;4.642;2022-10-17T12:33:50;12.35;;;6.78;;
68250;SDS011;55066;51.560;4.642;2022-10-17T12:38:41;14.60;;;8.10;;
68250;SDS011;55066;51.560;4.642;2022-10-17T12:41:08;12.38;;;7.40;;
68250;SDS011;55066;51.560;4.642;2022-10-17T12:43:47;14.33;;;8.10;;
68250;SDS011;55066;51.560;4.642;2022-10-17T12:49:38;14.05;;;7.82;;
68250;SDS011;55066;51.560;4.642;2022-10-17T12:54:39;16.33;;;8.43;;
68250;SDS011;55066;51.560;4.642;2022-10-17T12:57:26;17.43;;;8.43;;
68250;SDS011;55066;51.560;4.642;2022-10-17T12:59:57;17.48;;;8.30;;
68250;SDS011;55066;51.560;4.642;2022-10-17T13:02:26;14.45;;;7.97;;
68250;SDS011;55066;51.560;4.642;2022-10-17T13:04:57;17.15;;;8.20;;
68250;SDS011;55066;51.560;4.642;2022-10-17T13:07:30;16.00;;;7.97;;
68250;SDS011;55066;51.560;4.642;2022-10-17T13:09:58;15.87;;;8.07;;
68250;SDS011;55066;51.560;4.642;2022-10-17T13:12:28;14.77;;;8.02;;
68250;SDS011;55066;51.560;4.642;2022-10-17T13:14:56;12.73;;;7.22;;
68250;SDS011;55066;51.560;4.642;2022-10-17T13:17:26;12.10;;;7.03;;
68250;SDS011;55066;51.560;4.642;2022-10-17T13:19:55;13.20;;;7.67;;
68250;SDS011;55066;51.560;4.642;2022-10-17T13:22:22;15.50;;;7.60;;
68250;SDS011;55066;51.560;4.642;2022-10-17T13:24:52;14.93;;;7.80;;
68250;SDS011;55066;51.560;4.642;2022-10-17T13:27:32;12.95;;;7.50;;
68250;SDS011;55066;51.560;4.642;2022-10-17T13:29:59;13.43;;;7.53;;
68250;SDS011;55066;51.560;4.642;2022-10-17T13:32:33;16.07;;;7.93;;
68250;SDS011;55066;51.560;4.642;2022-10-17T13:35:10;15.95;;;8.20;;
68250;SDS011;55066;51.560;4.642;2022-10-17T13:37:41;14.68;;;7.78;;
68250;SDS011;55066;51.560;4.642;2022-10-17T13:40:16;14.55;;;7.90;;
68250;SDS011;55066;51.560;4.642;2022-10-17T13:42:43;15.63;;;8.20;;
68250;SDS011;55066;51.560;4.642;2022-10-17T13:45:13;13.70;;;8.10;;
68250;SDS011;55066;51.560;4.642;2022-10-17T13:47:43;18.35;;;8.45;;
68250;SDS011;55066;51.560;4.642;2022-10-17T13:50:52;13.38;;;7.30;;
68250;SDS011;55066;51.560;4.642;2022-10-17T13:53:48;12.68;;;7.22;;
68250;SDS011;55066;51.560;4.642;2022-10-17T13:55:59;13.48;;;7.03;;
68250;SDS011;55066;51.560;4.642;2022-10-17T13:58:30;12.37;;;6.73;;
68250;SDS011;55066;51.560;4.642;2022-10-17T14:01:06;11.73;;;6.95;;
68250;SDS011;55066;51.560;4.642;2022-10-17T14:03:34;11.95;;;7.03;;
68250;SDS011;55066;51.560;4.642;2022-10-17T14:06:04;12.10;;;7.10;;
68250;SDS011;55066;51.560;4.642;2022-10-17T14:08:52;12.20;;;7.25;;
68250;SDS011;55066;51.560;4.642;2022-10-17T14:11:33;15.20;;;7.28;;
68250;SDS011;55066;51.560;4.642;2022-10-17T14:14:06;11.57;;;6.90;;
68250;SDS011;55066;51.560;4.642;2022-10-17T14:16:46;13.90;;;6.28;;
68250;SDS011;55066;51.560;4.642;2022-10-17T14:19:30;12.10;;;6.43;;
68250;SDS011;55066;51.560;4.642;2022-10-17T14:22:13;12.43;;;6.53;;
68250;SDS011;55066;51.560;4.642;2022-10-17T14:24:49;10.23;;;5.97;;
68250;SDS011;55066;51.560;4.642;2022-10-17T14:27:30;13.65;;;6.40;;
68250;SDS011;55066;51.560;4.642;2022-10-17T14:30:44;11.75;;;6.15;;
68250;SDS011;55066;51.560;4.642;2022-10-17T14:32:59;11.07;;;6.30;;
68250;SDS011;55066;51.560;4.642;2022-10-17T14:35:29;11.98;;;6.38;;
68250;SDS011;55066;51.560;4.642;2022-10-17T14:37:59;11.80;;;6.70;;
68250;SDS011;55066;51.560;4.642;2022-10-17T14:40:27;16.05;;;5.90;;
68250;SDS011;55066;51.560;4.642;2022-10-17T14:42:59;17.08;;;6.10;;
68250;SDS011;55066;51.560;4.642;2022-10-17T14:45:28;10.40;;;6.23;;
68250;SDS011;55066;51.560;4.642;2022-10-17T14:48:08;12.40;;;6.65;;
68250;SDS011;55066;51.560;4.642;2022-10-17T14:50:36;11.13;;;6.28;;
68250;SDS011;55066;51.560;4.642;2022-10-17T14:53:11;10.20;;;6.25;;
68250;SDS011;55066;51.560;4.642;2022-10-17T14:56:47;10.70;;;5.87;;
68250;SDS011;55066;51.560;4.642;2022-10-17T14:59:01;12.35;;;6.05;;
68250;SDS011;55066;51.560;4.642;2022-10-17T15:01:29;12.82;;;6.18;;
68250;SDS011;55066;51.560;4.642;2022-10-17T15:03:55;12.68;;;6.07;;
68250;SDS011;55066;51.560;4.642;2022-10-17T15:06:23;10.50;;;6.80;;
68250;SDS011;55066;51.560;4.642;2022-10-17T15:08:53;12.20;;;6.07;;
68250;SDS011;55066;51.560;4.642;2022-10-17T15:11:18;13.18;;;6.43;;
68250;SDS011;55066;51.560;4.642;2022-10-17T15:13:44;11.63;;;6.60;;
68250;SDS011;55066;51.560;4.642;2022-10-17T15:16:14;14.00;;;6.77;;
68250;SDS011;55066;51.560;4.642;2022-10-17T15:18:49;11.63;;;6.13;;
68250;SDS011;55066;51.560;4.642;2022-10-17T15:21:18;10.45;;;6.10;;
68250;SDS011;55066;51.560;4.642;2022-10-17T15:23:45;11.77;;;6.05;;
68250;SDS011;55066;51.560;4.642;2022-10-17T15:26:15;11.50;;;6.13;;
68250;SDS011;55066;51.560;4.642;2022-10-17T15:28:43;12.95;;;6.20;;
68250;SDS011;55066;51.560;4.642;2022-10-17T15:31:14;13.18;;;6.38;;
68250;SDS011;55066;51.560;4.642;2022-10-17T15:33:41;11.82;;;6.88;;
68250;SDS011;55066;51.560;4.642;2022-10-17T15:36:19;11.68;;;6.97;;
68250;SDS011;55066;51.560;4.642;2022-10-17T15:38:50;13.00;;;7.20;;
68250;SDS011;55066;51.560;4.642;2022-10-17T15:41:21;13.40;;;6.82;;
68250;SDS011;55066;51.560;4.642;2022-10-17T15:43:48;14.10;;;7.13;;
68250;SDS011;55066;51.560;4.642;2022-10-17T15:46:15;11.87;;;7.17;;
68250;SDS011;55066;51.560;4.642;2022-10-17T15:48:53;11.75;;;6.97;;
68250;SDS011;55066;51.560;4.642;2022-10-17T15:51:20;15.43;;;7.47;;
68250;SDS011;55066;51.560;4.642;2022-10-17T15:53:46;13.57;;;7.00;;
68250;SDS011;55066;51.560;4.642;2022-10-17T15:56:16;12.90;;;7.07;;
68250;SDS011;55066;51.560;4.642;2022-10-17T15:58:45;14.52;;;6.57;;
68250;SDS011;55066;51.560;4.642;2022-10-17T16:01:15;13.10;;;6.90;;
68250;SDS011;55066;51.560;4.642;2022-10-17T16:03:45;16.52;;;6.97;;
68250;SDS011;55066;51.560;4.642;2022-10-17T16:06:12;13.18;;;6.93;;
68250;SDS011;55066;51.560;4.642;2022-10-17T16:08:38;14.67;;;7.03;;
68250;SDS011;55066;51.560;4.642;2022-10-17T16:11:03;10.90;;;6.73;;
68250;SDS011;55066;51.560;4.642;2022-10-17T16:13:29;10.77;;;6.47;;
68250;SDS011;55066;51.560;4.642;2022-10-17T16:15:54;14.23;;;6.82;;
68250;SDS011;55066;51.560;4.642;2022-10-17T16:18:20;11.30;;;6.40;;
68250;SDS011;55066;51.560;4.642;2022-10-17T16:20:45;12.00;;;6.47;;
68250;SDS011;55066;51.560;4.642;2022-10-17T16:23:12;15.50;;;6.85;;
68250;SDS011;55066;51.560;4.642;2022-10-17T16:25:38;15.55;;;7.25;;